Time;durP1;ratioP1;P1;durP2;ratioP2;P2;SDS_P1;SDS_P2;PMS_P1;PMS_P2;Temp;Humidity;BMP_temperature;BMP_pressure;BME280_temperature;BME280_humidity;BME280_pressure;Samples;Min_cycle;Max_cycle;Signal;HPM_P1;HPM_P2
2023/05/08 00:01:17;;;;;;;10.90;6.20;;;4.10;99.90;3.00;101751;;;;572718;246;24133;-74
2023/05/08 00:03:45;;;;;;;11.93;5.80;;;4.10;99.90;3.00;101754;;;;572952;246;24094;-79
2023/05/08 00:06:13;;;;;;;9.03;6.10;;;4.00;99.90;2.90;101746;;;;572932;246;24193;-77
2023/05/08 00:08:41;;;;;;;9.43;5.37;;;4.00;99.90;2.90;101748;;;;572883;246;24060;-76
2023/05/08 00:11:10;;;;;;;12.33;5.87;;;4.10;99.90;2.90;101751;;;;572700;246;24041;-79
2023/05/08 00:13:40;;;;;;;7.50;4.80;;;3.70;99.90;2.90;101749;;;;577963;246;24124;-78
2023/05/08 00:16:08;;;;;;;10.90;6.00;;;3.90;99.90;2.90;101749;;;;581255;246;24073;-80
2023/05/08 00:18:36;;;;;;;11.50;6.63;;;3.90;99.90;2.90;101744;;;;572411;246;24068;-79
2023/05/08 00:21:03;;;;;;;12.77;6.50;;;3.90;99.90;2.80;101750;;;;572161;246;24104;-76
2023/05/08 00:23:31;;;;;;;11.23;6.80;;;3.80;99.90;2.80;101750;;;;572449;246;24058;-82
2023/05/08 00:25:59;;;;;;;12.55;7.53;;;3.90;99.90;2.80;101745;;;;567282;246;35151;-81
2023/05/08 00:28:30;;;;;;;8.73;4.73;;;3.90;99.90;2.70;101748;;;;572262;246;24102;-81
2023/05/08 00:30:57;;;;;;;10.17;6.00;;;3.70;99.90;2.70;101750;;;;579398;246;24110;-78
2023/05/08 00:33:26;;;;;;;13.35;8.13;;;3.80;99.90;2.70;101758;;;;567471;246;35048;-79
2023/05/08 00:35:59;;;;;;;7.53;4.93;;;3.80;99.90;2.70;101751;;;;572459;246;24088;-79
2023/05/08 00:38:27;;;;;;;12.40;7.03;;;3.50;99.90;2.70;101755;;;;571996;246;24049;-80
2023/05/08 00:40:55;;;;;;;9.87;6.80;;;4.00;99.90;2.60;101752;;;;572332;246;24175;-80
2023/05/08 00:43:26;;;;;;;13.87;6.87;;;3.70;99.90;2.60;101750;;;;572495;246;24095;-79
2023/05/08 00:45:53;;;;;;;11.07;6.87;;;3.70;99.90;2.50;101751;;;;572456;246;24083;-80
2023/05/08 00:48:20;;;;;;;8.73;5.83;;;3.60;99.90;2.60;101754;;;;572513;246;24101;-80
2023/05/08 00:50:49;;;;;;;10.30;6.27;;;3.60;99.90;2.50;101747;;;;581121;246;24085;-80
2023/05/08 00:53:17;;;;;;;11.10;6.40;;;3.30;99.90;2.50;101746;;;;572446;246;24083;-80
2023/05/08 00:55:45;;;;;;;7.47;5.13;;;3.40;99.90;2.50;101743;;;;572461;246;24101;-79
2023/05/08 00:58:13;;;;;;;11.17;6.37;;;3.20;99.90;2.50;101743;;;;572278;246;24102;-80
2023/05/08 01:00:42;;;;;;;12.93;6.27;;;3.50;99.90;2.40;101747;;;;571951;246;24074;-78
2023/05/08 01:03:10;;;;;;;9.67;5.83;;;3.50;99.90;2.40;101747;;;;573959;246;24071;-80
2023/05/08 01:05:38;;;;;;;10.23;6.07;;;3.30;99.90;2.40;101743;;;;579747;246;25079;-78
2023/05/08 01:08:06;;;;;;;10.53;6.23;;;3.60;99.90;2.40;101747;;;;573453;246;24177;-80
2023/05/08 01:10:55;;;;;;;8.30;5.17;;;3.50;99.90;2.40;101758;;;;573395;246;24157;-79
2023/05/08 01:13:35;;;;;;;14.60;5.87;;;3.90;99.90;2.40;101762;;;;570131;246;24112;-82
2023/05/08 01:16:15;;;;;;;12.67;7.20;;;3.70;99.90;2.40;101764;;;;581901;246;24173;-77
2023/05/08 01:18:45;;;;;;;15.40;6.50;;;3.70;99.90;2.40;101760;;;;578758;246;24087;-75
2023/05/08 01:21:14;;;;;;;11.33;7.33;;;3.40;99.90;2.40;101758;;;;572517;246;24052;-74
2023/05/08 01:24:15;;;;;;;13.03;7.67;;;3.20;99.90;2.40;101771;;;;572101;246;24048;-73
2023/05/08 01:27:07;;;;;;;11.93;7.23;;;3.50;99.90;2.30;101766;;;;580921;246;24158;-81
2023/05/08 01:29:59;;;;;;;13.67;8.60;;;3.30;99.90;2.30;101771;;;;572580;246;24037;-80
2023/05/08 01:32:27;;;;;;;15.13;8.37;;;3.30;99.90;2.30;101772;;;;581479;246;24186;-79
2023/05/08 01:35:17;;;;;;;12.73;8.13;;;3.30;99.90;2.30;101782;;;;572081;246;25140;-79
2023/05/08 01:37:57;;;;;;;11.80;7.57;;;3.30;99.90;2.30;101774;;;;572727;246;24071;-72
2023/05/08 01:40:46;;;;;;;12.77;7.60;;;3.30;99.90;2.20;101774;;;;571811;246;24097;-73
2023/05/08 01:43:45;;;;;;;13.60;8.17;;;3.30;99.90;2.20;101774;;;;580876;246;24071;-79
2023/05/08 01:46:14;;;;;;;13.70;7.07;;;3.30;99.90;2.30;101768;;;;581027;246;24070;-79
2023/05/08 01:48:46;;;;;;;17.17;8.20;;;3.30;99.90;2.20;101774;;;;572392;246;25151;-78
2023/05/08 01:51:14;;;;;;;13.30;8.33;;;3.60;99.90;2.20;101778;;;;569677;246;25416;-79
2023/05/08 01:53:43;;;;;;;12.43;8.13;;;3.20;99.90;2.20;101775;;;;572048;246;24042;-80
2023/05/08 01:56:16;;;;;;;10.80;6.93;;;3.00;99.90;2.20;101774;;;;572201;246;24057;-79
2023/05/08 01:58:41;;;;;;;13.30;8.47;;;3.10;99.90;2.10;101769;;;;572064;246;24055;-80
2023/05/08 02:01:12;;;;;;;12.37;8.03;;;2.80;99.90;2.10;101775;;;;581166;246;24088;-78
2023/05/08 02:03:37;;;;;;;11.57;8.63;;;3.10;99.90;2.10;101773;;;;572285;246;24084;-82
2023/05/08 02:06:05;;;;;;;14.97;8.87;;;2.90;99.90;2.10;101779;;;;572426;246;24076;-79
2023/05/08 02:08:36;;;;;;;11.83;8.17;;;3.10;99.90;2.00;101779;;;;581188;246;24041;-80
2023/05/08 02:11:02;;;;;;;11.97;8.23;;;3.10;99.90;2.00;101773;;;;572331;246;24048;-82
2023/05/08 02:13:33;;;;;;;16.23;11.00;;;3.40;99.90;2.00;101772;;;;576843;245;35020;-77
2023/05/08 02:15:59;;;;;;;11.90;8.33;;;3.10;99.90;2.00;101778;;;;573456;246;24040;-75
2023/05/08 02:18:27;;;;;;;14.10;9.10;;;3.10;99.90;2.00;101775;;;;582080;246;24100;-78
2023/05/08 02:20:55;;;;;;;12.20;8.37;;;3.10;99.90;2.00;101777;;;;579289;246;25087;-80
2023/05/08 02:23:24;;;;;;;19.07;8.90;;;3.20;99.90;2.00;101779;;;;572957;246;24185;-75
2023/05/08 02:25:51;;;;;;;12.87;8.80;;;3.20;99.90;2.00;101779;;;;572667;246;24052;-73
2023/05/08 02:28:20;;;;;;;14.90;8.10;;;3.00;99.90;2.00;101780;;;;572526;246;24044;-80
2023/05/08 02:30:48;;;;;;;19.07;8.83;;;2.90;99.90;1.90;101780;;;;572553;246;24043;-77
2023/05/08 02:33:16;;;;;;;14.33;8.67;;;3.10;99.90;1.90;101783;;;;581507;246;24071;-77
2023/05/08 02:35:48;;;;;;;16.17;8.93;;;2.80;99.90;1.80;101780;;;;581397;246;24061;-80
2023/05/08 02:38:13;;;;;;;15.40;9.20;;;2.90;99.90;1.80;101780;;;;580956;245;24066;-79
2023/05/08 02:40:44;;;;;;;15.87;9.37;;;2.80;99.90;1.70;101781;;;;572577;246;24056;-79
2023/05/08 02:43:16;;;;;;;16.23;9.03;;;2.80;99.90;1.80;101784;;;;572681;246;24054;-73
2023/05/08 02:45:46;;;;;;;14.43;9.10;;;2.80;99.90;1.80;101787;;;;572402;246;24059;-73
2023/05/08 02:48:16;;;;;;;16.47;9.00;;;2.80;99.90;1.80;101789;;;;571870;246;24040;-79
2023/05/08 02:50:51;;;;;;;15.57;9.40;;;2.80;99.90;1.80;101782;;;;571570;246;24033;-79
2023/05/08 02:53:19;;;;;;;17.40;10.10;;;2.70;99.90;1.80;101780;;;;569721;246;24142;-77
2023/05/08 02:55:50;;;;;;;20.40;9.50;;;3.00;99.90;1.80;101782;;;;571132;246;25470;-76
2023/05/08 02:58:39;;;;;;;16.67;9.47;;;2.90;99.90;1.80;101782;;;;572377;246;24073;-80
2023/05/08 03:01:13;;;;;;;17.80;9.63;;;2.90;99.90;1.80;101776;;;;580590;246;24434;-76
2023/05/08 03:03:43;;;;;;;23.40;9.50;;;2.70;99.90;1.80;101785;;;;571878;246;24040;-79
2023/05/08 03:06:18;;;;;;;15.40;9.00;;;2.80;99.90;1.80;101790;;;;572709;246;24083;-78
2023/05/08 03:08:51;;;;;;;19.27;9.63;;;2.80;99.90;1.80;101797;;;;572776;246;25120;-77
2023/05/08 03:11:15;;;;;;;16.80;9.33;;;2.80;99.90;1.80;101793;;;;572277;246;24068;-75
2023/05/08 03:13:44;;;;;;;10.50;8.80;;;2.80;99.90;1.70;101797;;;;570143;246;24108;-76
2023/05/08 03:16:15;;;;;;;24.17;10.23;;;2.80;99.90;1.70;101794;;;;572264;246;25101;-77
2023/05/08 03:18:53;;;;;;;16.43;10.93;;;2.80;99.90;1.70;101798;;;;572247;246;24031;-78
2023/05/08 03:21:22;;;;;;;18.63;11.27;;;2.80;99.90;1.70;101789;;;;572358;246;24037;-79
2023/05/08 03:23:50;;;;;;;18.83;11.30;;;2.80;99.90;1.80;101799;;;;572096;246;24087;-79
2023/05/08 03:26:19;;;;;;;17.80;10.63;;;2.80;99.90;1.80;101793;;;;573717;246;24075;-79
2023/05/08 03:28:54;;;;;;;21.60;9.97;;;2.80;99.90;1.80;101791;;;;581749;246;24058;-79
2023/05/08 03:31:22;;;;;;;24.20;10.97;;;2.80;99.90;1.80;101793;;;;572698;246;24086;-78
2023/05/08 03:33:53;;;;;;;21.93;10.30;;;2.80;99.90;1.80;101805;;;;572762;246;24071;-77
2023/05/08 03:36:24;;;;;;;15.83;9.37;;;2.70;99.90;1.90;101801;;;;572863;246;24118;-78
2023/05/08 03:38:53;;;;;;;22.10;10.93;;;2.80;99.90;2.00;101797;;;;572953;246;24058;-76
2023/05/08 03:41:21;;;;;;;19.63;10.27;;;3.20;99.90;2.00;101801;;;;581450;246;24118;-78
2023/05/08 03:43:45;;;;;;;19.83;10.60;;;3.20;99.90;2.10;101792;;;;572454;246;24051;-79
2023/05/08 03:46:14;;;;;;;23.60;15.33;;;3.10;99.90;2.20;101789;;;;572832;246;24103;-79
2023/05/08 03:48:42;;;;;;;22.27;11.53;;;3.30;99.90;2.30;101797;;;;572715;246;24079;-76
2023/05/08 03:51:11;;;;;;;16.83;10.13;;;3.60;99.90;2.70;101796;;;;572634;246;24059;-80
2023/05/08 03:53:39;;;;;;;19.90;9.87;;;3.70;99.90;3.00;101800;;;;572318;246;24095;-80
2023/05/08 03:56:08;;;;;;;13.40;7.07;;;4.00;99.90;3.10;101800;;;;572526;246;24095;-77
2023/05/08 03:58:41;;;;;;;20.00;8.80;;;4.30;99.90;3.20;101796;;;;572300;246;24069;-75
2023/05/08 04:01:12;;;;;;;17.03;9.47;;;4.60;99.90;3.60;101801;;;;570364;246;24108;-74
2023/05/08 04:04:08;;;;;;;20.33;9.17;;;6.10;99.90;4.90;101807;;;;571227;246;24133;-73
2023/05/08 04:06:50;;;;;;;18.03;8.70;;;6.80;99.90;6.70;101817;;;;580469;246;24110;-73
2023/05/08 04:09:40;;;;;;;17.83;10.43;;;9.20;99.90;8.30;101823;;;;580252;246;24076;-78
2023/05/08 04:12:29;;;;;;;23.17;10.50;;;10.80;99.90;9.90;101833;;;;572306;246;24048;-74
2023/05/08 04:14:57;;;;;;;14.07;8.57;;;12.50;99.90;11.40;101824;;;;564533;246;24101;-78
2023/05/08 04:17:31;;;;;;;14.00;9.00;;;13.70;99.90;12.70;101842;;;;557545;252;24130;-79
2023/05/08 04:19:59;;;;;;;15.87;8.00;;;14.80;99.90;13.80;101838;;;;561849;251;24125;-77
2023/05/08 04:22:28;;;;;;;13.10;8.97;;;16.00;99.90;14.80;101843;;;;559467;252;24128;-78
2023/05/08 04:24:56;;;;;;;11.97;8.43;;;17.00;99.90;15.80;101850;;;;561699;251;24172;-78
2023/05/08 04:27:25;;;;;;;13.33;7.23;;;17.90;99.90;16.60;101845;;;;561567;251;24072;-74
2023/05/08 04:29:55;;;;;;;11.83;7.53;;;18.70;99.50;17.50;101850;;;;561174;251;24110;-74
2023/05/08 04:32:22;;;;;;;8.67;7.20;;;19.60;94.60;18.30;101869;;;;561480;251;24154;-74
2023/05/08 04:34:55;;;;;;;10.70;7.57;;;20.50;90.60;19.20;101861;;;;571347;246;24076;-72
2023/05/08 04:37:28;;;;;;;16.37;8.00;;;21.40;81.40;20.20;101861;;;;561348;250;24121;-72
2023/05/08 04:39:56;;;;;;;14.53;8.10;;;21.70;74.10;20.80;101862;;;;572548;246;24059;-73
2023/05/08 04:42:28;;;;;;;11.87;8.20;;;22.70;69.70;21.20;101874;;;;583750;246;24118;-75
2023/05/08 04:44:52;;;;;;;18.03;9.20;;;23.30;66.70;21.90;101871;;;;559401;251;24135;-79
2023/05/08 04:47:23;;;;;;;14.10;7.50;;;24.10;62.90;22.60;101873;;;;573936;246;23048;-76
2023/05/08 04:49:51;;;;;;;14.90;7.43;;;24.00;63.00;23.40;101878;;;;569721;251;24100;-73
2023/05/08 04:52:16;;;;;;;15.53;7.27;;;24.60;57.40;24.10;101887;;;;571596;251;23086;-75
2023/05/08 04:54:44;;;;;;;9.53;7.13;;;26.20;55.70;24.90;101882;;;;582602;246;23052;-75
2023/05/08 04:57:13;;;;;;;19.70;7.20;;;26.90;52.90;25.50;101895;;;;583399;246;23068;-77
2023/05/08 04:59:41;;;;;;;10.67;7.23;;;26.80;52.80;26.00;101895;;;;581115;246;24094;-75
2023/05/08 05:02:09;;;;;;;19.17;7.77;;;27.90;49.90;26.70;101900;;;;562878;251;24071;-76
2023/05/08 05:04:37;;;;;;;11.90;8.63;;;28.20;48.30;27.00;101905;;;;561585;251;24098;-74
2023/05/08 05:07:04;;;;;;;12.68;8.23;;;28.90;47.40;27.50;101910;;;;570418;251;23126;-76
2023/05/08 05:09:36;;;;;;;16.17;9.10;;;28.90;47.70;28.00;101915;;;;578627;246;23108;-77
2023/05/08 05:12:06;;;;;;;12.77;8.02;;;29.40;47.00;28.70;101916;;;;572199;251;23195;-76
2023/05/08 05:14:31;;;;;;;17.15;8.02;;;30.50;45.20;29.20;101913;;;;567350;252;24101;-77
2023/05/08 05:16:59;;;;;;;25.55;8.63;;;31.00;44.40;29.90;101918;;;;563336;250;24080;-74
2023/05/08 05:19:27;;;;;;;12.88;6.43;;;31.60;43.20;30.50;101919;;;;570249;246;23064;-77
2023/05/08 05:21:58;;;;;;;17.08;6.10;;;32.30;42.40;31.10;101926;;;;581124;246;24059;-80
2023/05/08 05:24:23;;;;;;;12.90;6.35;;;32.20;42.80;31.60;101926;;;;563295;251;23108;-74
2023/05/08 05:26:51;;;;;;;18.00;6.00;;;32.80;41.60;32.20;101927;;;;570243;251;23131;-75
2023/05/08 05:29:19;;;;;;;14.25;6.22;;;33.90;39.20;32.70;101930;;;;570128;251;23082;-74
2023/05/08 05:31:47;;;;;;;11.65;4.97;;;33.80;39.60;33.10;101933;;;;569863;251;24138;-73
2023/05/08 05:34:14;;;;;;;8.32;4.80;;;34.20;38.60;33.50;101943;;;;569789;251;23079;-80
2023/05/08 05:36:42;;;;;;;13.93;5.68;;;34.50;38.00;33.70;101945;;;;570104;251;23157;-79
2023/05/08 05:39:10;;;;;;;15.45;5.20;;;34.80;37.80;34.20;101945;;;;570164;251;23273;-79
2023/05/08 05:41:38;;;;;;;23.02;6.03;;;35.20;37.40;34.60;101950;;;;570141;251;23089;-80
2023/05/08 05:44:06;;;;;;;7.97;5.30;;;35.60;36.80;34.80;101955;;;;570129;251;24156;-80
2023/05/08 05:46:35;;;;;;;11.35;4.85;;;36.10;35.90;35.30;101956;;;;570222;251;23210;-80
2023/05/08 05:49:03;;;;;;;14.98;5.78;;;36.10;35.90;35.60;101952;;;;571413;250;23077;-81
2023/05/08 05:51:31;;;;;;;11.75;6.40;;;36.40;35.60;36.10;101957;;;;571337;251;23122;-77
2023/05/08 05:53:59;;;;;;;16.33;5.68;;;36.80;35.50;36.20;101963;;;;571157;251;23102;-78
2023/05/08 05:56:27;;;;;;;10.20;6.35;;;37.00;34.60;36.20;101967;;;;570841;251;23087;-78
2023/05/08 05:58:54;;;;;;;12.25;6.00;;;37.10;34.40;36.70;101966;;;;570326;251;23136;-80
2023/05/08 06:01:23;;;;;;;19.20;6.32;;;37.30;34.50;37.10;101962;;;;570651;251;23076;-78
2023/05/08 06:03:50;;;;;;;19.87;7.10;;;37.60;33.60;37.50;101966;;;;565328;251;35190;-78
2023/05/08 06:06:18;;;;;;;14.68;7.05;;;38.10;33.50;37.60;101968;;;;570612;251;23067;-79
2023/05/08 06:08:47;;;;;;;13.60;6.22;;;38.40;33.60;38.00;101970;;;;570469;251;23200;-76
2023/05/08 06:11:14;;;;;;;14.02;6.68;;;38.80;33.10;38.40;101971;;;;570638;249;23142;-79
2023/05/08 06:13:43;;;;;;;21.33;7.40;;;39.10;32.50;38.60;101972;;;;572784;246;23089;-78
2023/05/08 06:16:10;;;;;;;20.17;7.25;;;39.40;32.40;39.10;101971;;;;572306;251;23166;-80
2023/05/08 06:18:38;;;;;;;16.08;6.25;;;39.90;32.60;39.70;101972;;;;570438;251;23096;-81
2023/05/08 06:21:06;;;;;;;13.73;6.12;;;40.30;32.30;39.80;101976;;;;570429;251;23093;-80
2023/05/08 06:23:34;;;;;;;20.08;6.53;;;40.60;31.90;40.30;101972;;;;570316;251;23075;-75
2023/05/08 06:26:02;;;;;;;22.30;6.90;;;41.50;30.80;40.80;101981;;;;570097;251;23103;-75
2023/05/08 06:28:30;;;;;;;21.98;6.78;;;41.40;30.80;41.10;101981;;;;570161;249;23106;-75
2023/05/08 06:30:58;;;;;;;17.40;8.10;;;41.80;30.50;41.70;101986;;;;570187;251;23126;-76
2023/05/08 06:33:26;;;;;;;18.92;6.10;;;42.30;30.50;42.20;101985;;;;569685;251;23088;-78
2023/05/08 06:35:54;;;;;;;15.43;6.78;;;42.80;30.00;42.60;101987;;;;570147;251;26365;-78
2023/05/08 06:38:22;;;;;;;9.77;5.30;;;43.20;29.80;42.60;101985;;;;570184;249;23142;-81
2023/05/08 06:40:50;;;;;;;7.22;5.30;;;43.30;29.30;42.60;101984;;;;570225;251;23109;-81
2023/05/08 06:43:18;;;;;;;8.52;5.37;;;43.20;29.30;42.90;101996;;;;570202;251;23142;-81
2023/05/08 06:45:46;;;;;;;11.27;6.28;;;42.60;28.80;43.30;101991;;;;565237;251;35174;-80
2023/05/08 06:48:14;;;;;;;8.60;5.03;;;43.80;29.00;43.50;101988;;;;570125;251;23081;-76
2023/05/08 06:50:42;;;;;;;10.25;5.12;;;44.00;28.70;43.70;101993;;;;570200;251;23120;-80
2023/05/08 06:53:09;;;;;;;9.45;5.07;;;44.10;28.60;43.70;101986;;;;570119;251;23139;-80
2023/05/08 06:55:37;;;;;;;10.70;5.05;;;44.30;28.70;43.80;101991;;;;570141;251;24109;-80
2023/05/08 06:58:05;;;;;;;9.10;5.37;;;44.40;28.50;44.10;101991;;;;569932;251;23094;-79
2023/05/08 07:00:33;;;;;;;12.77;5.93;;;44.60;28.50;44.50;101988;;;;573456;246;23038;-80
2023/05/08 07:03:01;;;;;;;18.45;6.32;;;45.00;28.40;44.90;101990;;;;583928;245;24089;-78
2023/05/08 07:05:29;;;;;;;16.23;5.97;;;45.40;28.10;45.20;101998;;;;579036;246;24131;-80
2023/05/08 07:07:57;;;;;;;16.92;5.93;;;45.80;28.10;45.50;102000;;;;583652;246;23052;-79
2023/05/08 07:10:25;;;;;;;13.45;6.18;;;46.00;27.90;45.40;101999;;;;581767;246;23046;-77
2023/05/08 07:12:53;;;;;;;11.43;5.55;;;46.10;27.40;45.30;101991;;;;572742;251;23125;-80
2023/05/08 07:15:21;;;;;;;9.77;5.78;;;46.00;27.50;45.40;101998;;;;565872;251;46071;-81
2023/05/08 07:17:49;;;;;;;25.12;5.75;;;46.00;27.00;45.30;102003;;;;570607;251;23096;-80
2023/05/08 07:20:18;;;;;;;15.00;4.65;;;45.70;26.70;44.80;101998;;;;570508;251;23067;-81
2023/05/08 07:22:47;;;;;;;14.43;5.82;;;45.30;26.90;44.50;102001;;;;570446;251;23075;-81
2023/05/08 07:25:15;;;;;;;12.90;6.23;;;45.30;27.00;44.30;102002;;;;565425;251;46068;-78
2023/05/08 07:27:43;;;;;;;15.90;5.35;;;45.20;27.10;44.50;101998;;;;570405;251;24445;-78
2023/05/08 07:30:11;;;;;;;15.10;5.28;;;45.60;27.50;45.00;101999;;;;570408;251;23068;-81
2023/05/08 07:32:39;;;;;;;6.97;4.50;;;45.50;27.40;45.50;102004;;;;570427;251;23153;-80
2023/05/08 07:35:10;;;;;;;9.35;4.18;;;45.90;26.60;45.10;101994;;;;570169;251;23205;-76
2023/05/08 07:37:35;;;;;;;14.50;4.40;;;45.80;26.60;44.60;101994;;;;561110;251;24122;-76
2023/05/08 07:40:03;;;;;;;4.12;3.80;;;45.50;26.50;44.90;101994;;;;568637;251;23149;-78
2023/05/08 07:42:31;;;;;;;9.35;3.70;;;45.60;26.40;45.30;101999;;;;569849;251;23113;-75
2023/05/08 07:45:02;;;;;;;7.55;4.18;;;45.70;26.50;45.50;102000;;;;582433;246;23176;-79
2023/05/08 07:47:27;;;;;;;15.50;5.62;;;45.80;26.70;45.80;101997;;;;567470;249;23097;-79
2023/05/08 07:49:55;;;;;;;10.48;6.37;;;46.00;26.90;45.00;101999;;;;564064;248;35295;-77
2023/05/08 07:52:23;;;;;;;16.17;6.12;;;45.90;26.70;44.10;101993;;;;580051;248;23182;-76
2023/05/08 07:54:51;;;;;;;7.55;6.07;;;45.30;26.80;43.70;102004;;;;570577;251;23087;-79
2023/05/08 07:57:19;;;;;;;8.88;5.20;;;44.80;26.90;43.20;101998;;;;571042;248;23101;-75
2023/05/08 07:59:47;;;;;;;11.18;5.07;;;44.30;27.10;43.50;102000;;;;570937;251;23070;-81
2023/05/08 08:02:14;;;;;;;15.35;5.78;;;44.20;27.40;43.90;101997;;;;570225;250;23090;-78
2023/05/08 08:04:42;;;;;;;13.57;5.25;;;44.50;27.40;43.70;102004;;;;580092;246;23055;-80
2023/05/08 08:07:10;;;;;;;6.60;4.40;;;44.50;26.80;43.20;102005;;;;563209;251;23125;-80
2023/05/08 08:09:38;;;;;;;6.18;4.12;;;44.20;27.10;43.40;102009;;;;570187;251;24155;-79
2023/05/08 08:12:06;;;;;;;11.93;5.20;;;44.20;26.70;43.00;102009;;;;571247;250;23098;-79
2023/05/08 08:14:35;;;;;;;11.80;4.18;;;44.10;26.80;43.30;102008;;;;571192;251;23132;-76
2023/05/08 08:17:03;;;;;;;7.37;4.12;;;44.10;26.10;43.20;102006;;;;573057;246;23065;-80
2023/05/08 08:19:31;;;;;;;8.80;4.65;;;44.10;26.40;43.10;101999;;;;583552;246;23104;-81
2023/05/08 08:22:00;;;;;;;4.65;2.95;;;44.20;25.30;43.30;102012;;;;581667;246;23158;-79
2023/05/08 08:24:31;;;;;;;13.82;4.07;;;44.10;25.30;43.00;102016;;;;583350;246;24095;-77
2023/05/08 08:26:59;;;;;;;6.75;4.00;;;43.90;25.90;42.80;102012;;;;581362;246;23065;-74
2023/05/08 08:29:24;;;;;;;5.80;3.42;;;43.80;25.80;42.40;102010;;;;572436;246;23096;-81
2023/05/08 08:31:53;;;;;;;5.43;3.55;;;43.20;25.20;41.90;102011;;;;583094;246;23115;-78
2023/05/08 08:34:25;;;;;;;2.97;2.70;;;42.60;25.40;41.20;102012;;;;568763;251;23132;-75
2023/05/08 08:36:49;;;;;;;2.95;2.60;;;42.60;25.40;41.20;102014;;;;570412;251;23225;-79
2023/05/08 08:39:17;;;;;;;3.50;3.03;;;42.40;25.80;41.40;102012;;;;579293;246;24148;-75
2023/05/08 08:41:45;;;;;;;6.55;3.28;;;42.50;25.60;42.10;102013;;;;581133;246;23078;-79
2023/05/08 08:44:13;;;;;;;7.95;4.25;;;43.00;26.00;42.50;102019;;;;581128;246;23043;-76
2023/05/08 08:46:45;;;;;;;2.72;2.37;;;43.50;24.80;42.30;102012;;;;570253;251;23086;-80
2023/05/08 08:49:13;;;;;;;16.23;3.95;;;43.50;24.80;42.90;102014;;;;569610;251;23138;-78
2023/05/08 08:51:52;;;;;;;12.25;2.85;;;44.00;25.40;43.80;102012;;;;571710;246;23135;-76
2023/05/08 08:54:20;;;;;;;6.32;2.58;;;44.70;24.50;43.00;102002;;;;573622;246;23086;-75
2023/05/08 08:56:50;;;;;;;6.45;3.30;;;44.40;24.60;43.00;102004;;;;568323;249;24207;-79
2023/05/08 08:59:17;;;;;;;19.90;4.10;;;44.40;24.50;42.90;102010;;;;577023;245;23239;-74
2023/05/08 09:01:45;;;;;;;7.53;3.67;;;44.40;25.20;42.70;102010;;;;570639;246;23112;-75
2023/05/08 09:04:13;;;;;;;14.13;4.22;;;44.30;24.90;43.10;102004;;;;573649;246;23080;-76
2023/05/08 09:06:44;;;;;;;27.87;5.97;;;45.10;25.40;43.80;102007;;;;569796;250;23071;-76
2023/05/08 09:09:10;;;;;;;10.00;3.53;;;45.10;25.40;44.10;102001;;;;580789;245;23080;-79
2023/05/08 09:11:38;;;;;;;5.10;3.03;;;45.50;24.60;44.10;102009;;;;558259;252;23158;-76
2023/05/08 09:14:08;;;;;;;3.42;3.08;;;45.70;24.70;43.50;102012;;;;562092;251;23155;-80
2023/05/08 09:16:36;;;;;;;5.62;3.20;;;45.40;24.40;42.80;102013;;;;569365;251;23132;-77
2023/05/08 09:19:04;;;;;;;3.33;3.03;;;44.80;24.90;42.20;102008;;;;581202;246;23140;-75
2023/05/08 09:21:32;;;;;;;5.70;2.80;;;44.30;25.00;42.40;102009;;;;582807;246;24088;-74
2023/05/08 09:24:03;;;;;;;3.03;2.78;;;44.20;25.00;43.10;102014;;;;569755;251;24156;-75
2023/05/08 09:26:37;;;;;;;3.05;2.30;;;44.60;24.50;42.80;102007;;;;582221;246;23062;-75
2023/05/08 09:29:17;;;;;;;5.20;3.30;;;44.70;24.50;43.30;102009;;;;574277;246;23090;-76
2023/05/08 09:31:44;;;;;;;7.28;2.62;;;44.90;24.30;42.80;102010;;;;562954;251;23157;-76
2023/05/08 09:34:28;;;;;;;9.10;3.58;;;45.10;24.90;43.30;102002;;;;562147;251;23079;-75
2023/05/08 09:37:08;;;;;;;2.80;2.60;;;45.10;24.80;44.20;102003;;;;571577;246;24068;-77
2023/05/08 09:39:40;;;;;;;2.85;2.65;;;46.10;24.00;44.20;101997;;;;567898;248;23157;-76
2023/05/08 09:42:04;;;;;;;5.65;2.92;;;46.00;24.00;44.40;102004;;;;561807;251;23128;-80
2023/05/08 09:44:47;;;;;;;5.25;3.47;;;46.10;24.00;43.60;101995;;;;570365;246;23119;-81
2023/05/08 09:47:19;;;;;;;7.85;3.05;;;45.90;23.90;43.00;102001;;;;570131;251;23136;-81
2023/05/08 09:50:01;;;;;;;13.55;3.72;;;45.50;24.30;43.80;101994;;;;580932;246;23077;-81
2023/05/08 09:52:29;;;;;;;7.95;2.95;;;45.90;24.40;44.50;101992;;;;570051;251;23102;-80
2023/05/08 09:55:00;;;;;;;5.75;2.47;;;46.50;24.20;45.30;101993;;;;571023;246;25232;-80
2023/05/08 09:57:28;;;;;;;6.70;3.22;;;47.10;23.80;45.20;101992;;;;569301;250;23099;-77
2023/05/08 10:00:08;;;;;;;8.40;3.42;;;47.40;23.70;45.60;101988;;;;571952;246;23063;-81
2023/05/08 10:02:35;;;;;;;8.48;2.95;;;47.60;23.60;45.80;101983;;;;571627;251;23103;-73
2023/05/08 10:05:25;;;;;;;6.03;3.00;;;48.10;23.90;46.30;101981;;;;562914;249;23148;-80
2023/05/08 10:07:52;;;;;;;8.35;3.42;;;48.60;23.50;44.70;101999;;;;569987;246;23061;-82
2023/05/08 10:10:26;;;;;;;5.57;3.30;;;47.80;23.80;42.90;101979;;;;572401;246;23039;-80
2023/05/08 10:13:00;;;;;;;5.60;2.72;;;46.30;23.70;40.60;101976;;;;559075;252;23176;-79
2023/05/08 10:15:33;;;;;;;3.30;2.40;;;44.20;24.10;40.00;101975;;;;563790;248;23150;-80
2023/05/08 10:18:11;;;;;;;7.12;2.90;;;42.90;24.60;39.70;101976;;;;561249;251;23140;-79
2023/05/08 10:20:35;;;;;;;7.45;3.60;;;42.20;25.50;39.80;101973;;;;570082;246;23062;-80
2023/05/08 10:23:03;;;;;;;10.35;3.10;;;42.00;26.30;39.60;101973;;;;557974;252;23158;-81
2023/05/08 10:25:36;;;;;;;2.90;2.60;;;41.80;25.80;39.70;101974;;;;564636;251;23108;-81
2023/05/08 10:28:13;;;;;;;6.85;3.33;;;41.80;26.10;38.70;101975;;;;567688;251;23157;-77
2023/05/08 10:30:41;;;;;;;4.05;2.75;;;41.10;25.30;36.60;101976;;;;559953;249;23177;-78
2023/05/08 10:33:09;;;;;;;16.17;3.40;;;39.50;25.70;34.20;101969;;;;561826;251;23128;-76
2023/05/08 10:35:39;;;;;;;4.82;2.78;;;37.40;26.40;32.10;101968;;;;568609;248;23159;-80
2023/05/08 10:38:05;;;;;;;2.83;2.62;;;35.10;27.20;30.40;101960;;;;578923;248;24146;-77
2023/05/08 10:40:32;;;;;;;4.10;3.05;;;31.70;29.00;29.60;101954;;;;563243;251;24199;-78
2023/05/08 10:43:01;;;;;;;9.93;3.15;;;30.10;30.80;28.50;101953;;;;564137;251;23094;-78
2023/05/08 10:45:31;;;;;;;6.75;2.62;;;28.60;32.20;27.40;101957;;;;578700;246;23107;-77
2023/05/08 10:48:21;;;;;;;2.60;2.40;;;27.90;33.80;26.10;101952;;;;563234;251;23122;-74
2023/05/08 10:51:10;;;;;;;4.33;3.40;;;25.50;35.30;24.30;101943;;;;573788;246;23081;-79
2023/05/08 10:53:42;;;;;;;7.23;2.83;;;24.40;37.50;23.20;101936;;;;558926;251;23224;-79
2023/05/08 10:56:10;;;;;;;4.90;2.40;;;23.60;39.90;22.20;101937;;;;571576;246;23080;-81
2023/05/08 10:58:38;;;;;;;4.77;2.53;;;22.30;42.20;21.20;101936;;;;562715;251;24075;-80
2023/05/08 11:01:09;;;;;;;21.07;5.03;;;21.80;42.90;20.60;101913;;;;563357;251;24116;-76
2023/05/08 11:03:50;;;;;;;26.53;4.13;;;20.80;42.10;20.10;101933;;;;563013;251;24071;-73
2023/05/08 11:06:14;;;;;;;3.63;2.57;;;20.30;44.20;19.80;101930;;;;572927;246;24050;-76
2023/05/08 11:08:49;;;;;;;7.67;3.43;;;20.50;45.80;19.60;101920;;;;574798;246;24095;-75
2023/05/08 11:11:31;;;;;;;7.50;3.40;;;19.90;47.00;19.40;101911;;;;572983;246;24045;-79
2023/05/08 11:14:08;;;;;;;10.90;3.43;;;19.50;47.90;19.00;101908;;;;561271;251;24111;-78
2023/05/08 11:16:55;;;;;;;11.73;2.90;;;19.20;48.80;18.50;101905;;;;562608;251;24074;-76
2023/05/08 11:19:25;;;;;;;13.73;5.00;;;18.80;49.20;18.00;101896;;;;572599;246;24041;-75
2023/05/08 11:22:25;;;;;;;5.77;3.30;;;18.30;49.70;17.70;101895;;;;564848;251;24090;-74
2023/05/08 11:25:04;;;;;;;3.08;2.78;;;17.90;49.00;17.20;101896;;;;557217;251;35185;-73